createdAt,value
2018-09-09T00:00:10.460Z,4.63
2018-09-09T00:02:38.160Z,4.73
2018-09-09T00:05:05.887Z,5.63
2018-09-09T00:07:33.670Z,5.07
2018-09-09T00:10:01.060Z,4.60
2018-09-09T00:12:28.499Z,5.40
2018-09-09T00:14:55.802Z,5.10
2018-09-09T00:17:23.129Z,4.80
2018-09-09T00:19:50.497Z,4.80
2018-09-09T00:22:17.786Z,5.00
2018-09-09T00:24:45.610Z,4.80
2018-09-09T00:27:12.724Z,4.57
2018-09-09T00:29:40.620Z,4.50
2018-09-09T00:32:08.594Z,4.47
2018-09-09T00:34:36.359Z,5.20
2018-09-09T00:37:03.481Z,4.80
2018-09-09T00:39:30.619Z,4.57
2018-09-09T00:41:57.943Z,4.50
2018-09-09T00:44:25.196Z,4.83
2018-09-09T00:46:52.608Z,4.80
2018-09-09T00:49:25.365Z,4.57
2018-09-09T00:51:58.134Z,4.80
2018-09-09T00:54:25.472Z,4.20
2018-09-09T00:56:52.545Z,4.33
2018-09-09T00:59:19.679Z,4.40
2018-09-09T01:01:46.782Z,4.37
2018-09-09T01:04:13.886Z,4.00
2018-09-09T01:06:40.981Z,4.20
2018-09-09T01:09:08.802Z,3.97
2018-09-09T01:11:35.911Z,4.93
2018-09-09T01:14:03.125Z,4.50
2018-09-09T01:16:30.229Z,4.40
2018-09-09T01:18:57.328Z,4.90
2018-09-09T01:21:24.430Z,4.57
2018-09-09T01:23:51.520Z,4.10
2018-09-09T01:26:18.633Z,4.23
2018-09-09T01:28:45.762Z,4.33
2018-09-09T01:31:12.911Z,4.50
2018-09-09T01:33:40.017Z,4.00
2018-09-09T01:36:07.119Z,4.10
2018-09-09T01:38:34.218Z,4.30
2018-09-09T01:41:01.297Z,4.60
2018-09-09T01:43:28.399Z,4.30
2018-09-09T01:45:55.493Z,4.50
2018-09-09T01:48:22.585Z,3.83
2018-09-09T01:50:49.864Z,3.90
2018-09-09T01:53:16.977Z,3.77
2018-09-09T01:55:44.157Z,4.00
2018-09-09T01:58:11.253Z,4.20
2018-09-09T02:00:38.361Z,4.70
2018-09-09T02:03:05.457Z,3.87
2018-09-09T02:05:32.643Z,3.53
2018-09-09T02:07:59.724Z,4.30
2018-09-09T02:10:26.822Z,3.70
2018-09-09T02:12:54.030Z,4.17
2018-09-09T02:15:21.117Z,4.00
2018-09-09T02:17:48.214Z,4.00
2018-09-09T02:20:15.309Z,4.00
2018-09-09T02:22:42.412Z,3.80
2018-09-09T02:25:09.492Z,3.87
2018-09-09T02:27:36.600Z,3.73
2018-09-09T02:30:04.430Z,4.07
2018-09-09T02:32:31.516Z,4.10
2018-09-09T02:34:58.614Z,4.27
2018-09-09T02:37:25.729Z,4.10
2018-09-09T02:39:52.825Z,3.90
2018-09-09T02:42:19.924Z,3.80
2018-09-09T02:44:47.042Z,4.30
2018-09-09T02:47:14.321Z,4.27
2018-09-09T02:49:41.856Z,4.10
2018-09-09T02:52:08.950Z,4.30
2018-09-09T02:54:36.067Z,4.63
2018-09-09T02:57:03.133Z,4.03
2018-09-09T02:59:30.217Z,4.20
2018-09-09T03:01:57.305Z,4.20
2018-09-09T03:04:24.421Z,4.30
2018-09-09T03:06:51.752Z,4.33
2018-09-09T03:09:18.858Z,4.50
2018-09-09T03:11:45.945Z,4.10
2018-09-09T03:14:13.120Z,4.37
2018-09-09T03:16:40.248Z,4.40
2018-09-09T03:19:07.338Z,4.70
2018-09-09T03:21:34.451Z,4.00
2018-09-09T03:24:01.563Z,3.73
2018-09-09T03:26:28.702Z,4.30
2018-09-09T03:29:00.093Z,4.10
2018-09-09T03:31:27.186Z,4.57
2018-09-09T03:33:54.318Z,4.23
2018-09-09T03:36:21.423Z,4.30
2018-09-09T03:38:48.550Z,4.40
2018-09-09T03:41:15.643Z,4.10
2018-09-09T03:43:42.787Z,4.20
2018-09-09T03:46:09.894Z,3.83
2018-09-09T03:48:37.061Z,4.10
2018-09-09T03:51:04.143Z,4.40
2018-09-09T03:53:31.238Z,4.20
2018-09-09T03:55:58.329Z,4.00
2018-09-09T03:58:25.421Z,3.90
2018-09-09T04:00:52.521Z,4.20
2018-09-09T04:03:19.622Z,3.87
2018-09-09T04:05:46.710Z,4.27
2018-09-09T04:08:13.806Z,3.90
2018-09-09T04:10:41.012Z,4.33
2018-09-09T04:13:08.097Z,3.63
2018-09-09T04:15:35.190Z,4.00
2018-09-09T04:18:02.282Z,3.90
2018-09-09T04:20:29.378Z,4.07
2018-09-09T04:22:56.461Z,4.00
2018-09-09T04:25:23.966Z,4.33
2018-09-09T04:27:51.089Z,4.03
2018-09-09T04:30:18.192Z,3.70
2018-09-09T04:32:45.346Z,4.20
2018-09-09T04:35:12.434Z,4.20
2018-09-09T04:37:39.529Z,4.03
2018-09-09T04:40:06.759Z,4.00
2018-09-09T04:42:33.850Z,3.67
2018-09-09T04:45:00.941Z,3.97
2018-09-09T04:47:28.151Z,3.73
2018-09-09T04:49:55.242Z,3.40
2018-09-09T04:52:22.809Z,4.17
2018-09-09T04:54:49.907Z,4.20
2018-09-09T04:57:17.033Z,3.80
2018-09-09T04:59:44.116Z,4.03
2018-09-09T05:02:11.207Z,3.97
2018-09-09T05:04:38.307Z,4.30
2018-09-09T05:07:05.398Z,4.03
2018-09-09T05:09:32.892Z,4.03
2018-09-09T05:11:59.984Z,4.43
2018-09-09T05:14:27.074Z,3.80
2018-09-09T05:16:54.279Z,4.50
2018-09-09T05:19:21.437Z,4.07
2018-09-09T05:21:48.537Z,3.73
2018-09-09T05:24:15.619Z,4.37
2018-09-09T05:26:42.805Z,3.60
2018-09-09T05:29:09.881Z,3.93
2018-09-09T05:31:37.005Z,4.40
2018-09-09T05:34:04.097Z,4.20
2018-09-09T05:36:31.203Z,3.80
2018-09-09T05:38:58.293Z,3.60
2018-09-09T05:41:25.405Z,3.90
2018-09-09T05:43:52.502Z,3.83
2018-09-09T05:46:19.665Z,3.93
2018-09-09T05:48:46.753Z,3.60
2018-09-09T05:51:13.866Z,3.77
2018-09-09T05:53:41.015Z,3.63
2018-09-09T05:56:08.041Z,3.70
2018-09-09T05:58:35.138Z,4.20
2018-09-09T06:01:02.239Z,4.23
2018-09-09T06:03:29.329Z,3.70
2018-09-09T06:05:56.413Z,4.17
2018-09-09T06:08:23.509Z,3.80
2018-09-09T06:10:54.642Z,3.87
2018-09-09T06:13:22.594Z,3.77
2018-09-09T06:15:49.706Z,3.40
2018-09-09T06:18:16.806Z,4.00
2018-09-09T06:20:44.086Z,3.93
2018-09-09T06:23:11.254Z,3.70
2018-09-09T06:25:38.349Z,3.80
2018-09-09T06:28:05.453Z,3.57
2018-09-09T06:30:32.546Z,3.90
2018-09-09T06:32:59.721Z,3.97
2018-09-09T06:35:26.786Z,3.33
2018-09-09T06:37:54.324Z,3.70
2018-09-09T06:40:21.426Z,3.60
2018-09-09T06:42:48.518Z,3.33
2018-09-09T06:45:15.672Z,3.50
2018-09-09T06:47:42.767Z,3.50
2018-09-09T06:50:10.097Z,4.00
2018-09-09T06:52:37.208Z,3.87
2018-09-09T06:55:04.332Z,4.00
2018-09-09T06:57:31.421Z,3.70
2018-09-09T06:59:58.569Z,4.03
2018-09-09T07:02:25.732Z,3.10
2018-09-09T07:04:52.745Z,3.60
2018-09-09T07:07:19.841Z,3.70
2018-09-09T07:09:46.938Z,3.90
2018-09-09T07:12:14.026Z,3.50
2018-09-09T07:14:41.127Z,3.80
2018-09-09T07:17:08.323Z,3.40
2018-09-09T07:19:35.402Z,3.40
2018-09-09T07:22:02.584Z,3.53
2018-09-09T07:24:29.713Z,3.37
2018-09-09T07:26:56.881Z,3.47
2018-09-09T07:29:24.018Z,3.17
2018-09-09T07:31:51.305Z,3.20
2018-09-09T07:34:21.678Z,3.70
2018-09-09T07:36:49.016Z,3.20
2018-09-09T07:39:16.124Z,3.00
2018-09-09T07:41:43.247Z,2.97
2018-09-09T07:44:10.337Z,3.53
2018-09-09T07:46:37.529Z,3.30
2018-09-09T07:49:04.894Z,3.40
2018-09-09T07:51:32.251Z,3.60
2018-09-09T07:53:59.349Z,3.33
2018-09-09T07:56:26.434Z,3.27
2018-09-09T07:58:53.541Z,3.10
2018-09-09T08:01:20.639Z,3.10
2018-09-09T08:03:47.721Z,2.87
2018-09-09T08:06:14.829Z,2.90
2018-09-09T08:08:42.010Z,2.83
2018-09-09T08:11:09.146Z,2.80
2018-09-09T08:13:36.258Z,2.83
2018-09-09T08:16:04.581Z,2.77
2018-09-09T08:18:31.783Z,2.90
2018-09-09T08:20:58.790Z,2.53
2018-09-09T08:23:26.456Z,2.97
2018-09-09T08:25:53.514Z,2.83
2018-09-09T08:28:20.821Z,2.63
2018-09-09T08:30:47.913Z,2.83
2018-09-09T08:33:15.005Z,2.93
2018-09-09T08:35:42.129Z,2.90
2018-09-09T08:38:09.229Z,2.77
2018-09-09T08:40:36.330Z,2.97
2018-09-09T08:43:03.433Z,3.00
2018-09-09T08:45:30.593Z,2.90
2018-09-09T08:47:57.676Z,2.63
2018-09-09T08:50:24.794Z,2.40
2018-09-09T08:52:52.340Z,2.87
2018-09-09T08:55:19.441Z,2.57
2018-09-09T08:57:46.538Z,2.60
2018-09-09T09:00:13.678Z,2.97
2018-09-09T09:02:40.757Z,2.43
2018-09-09T09:05:07.906Z,2.60
2018-09-09T09:07:35.052Z,2.40
2018-09-09T09:10:02.093Z,2.03
2018-09-09T09:12:29.216Z,2.60
2018-09-09T09:14:56.302Z,2.37
2018-09-09T09:17:23.400Z,2.47
2018-09-09T09:19:50.510Z,2.40
2018-09-09T09:22:17.618Z,2.70
2018-09-09T09:24:44.765Z,2.87
2018-09-09T09:27:11.856Z,2.90
2018-09-09T09:29:44.439Z,2.20
2018-09-09T09:32:11.521Z,2.53
2018-09-09T09:34:38.617Z,2.47
2018-09-09T09:37:05.733Z,2.10
2018-09-09T09:39:32.849Z,2.40
2018-09-09T09:41:59.945Z,2.20
2018-09-09T09:44:27.042Z,2.10
2018-09-09T09:46:54.212Z,1.90
2018-09-09T09:49:21.314Z,2.10
2018-09-09T09:51:48.493Z,1.87
2018-09-09T09:54:15.593Z,2.03
2018-09-09T09:56:42.688Z,2.30
2018-09-09T09:59:09.793Z,2.00
2018-09-09T10:01:36.923Z,2.10
2018-09-09T10:04:04.018Z,2.20
2018-09-09T10:06:31.115Z,2.10
2018-09-09T10:08:58.225Z,2.30
2018-09-09T10:11:25.389Z,2.50
2018-09-09T10:13:52.478Z,1.87
2018-09-09T10:16:19.606Z,1.90
2018-09-09T10:18:46.714Z,2.30
2018-09-09T10:21:13.826Z,1.93
2018-09-09T10:23:40.938Z,2.17
2018-09-09T10:26:08.037Z,2.00
2018-09-09T10:28:35.163Z,1.80
2018-09-09T10:31:02.248Z,1.90
2018-09-09T10:33:29.361Z,2.80
2018-09-09T10:35:56.462Z,2.30
2018-09-09T10:38:23.671Z,1.90
2018-09-09T10:40:50.809Z,1.80
2018-09-09T10:43:17.967Z,2.10
2018-09-09T10:45:45.050Z,1.90
2018-09-09T10:48:12.269Z,1.80
2018-09-09T10:50:39.417Z,1.90
2018-09-09T10:53:06.519Z,2.30
2018-09-09T10:55:33.634Z,2.00
2018-09-09T10:58:00.742Z,2.00
2018-09-09T11:00:27.849Z,1.70
2018-09-09T11:02:54.954Z,2.03
2018-09-09T11:05:22.054Z,2.20
2018-09-09T11:07:49.563Z,2.57
2018-09-09T11:10:16.661Z,2.00
2018-09-09T11:12:43.815Z,1.80
2018-09-09T11:15:10.882Z,2.37
2018-09-09T11:17:37.985Z,2.10
2018-09-09T11:20:05.149Z,1.90
2018-09-09T11:22:32.313Z,1.90
2018-09-09T11:24:59.425Z,1.70
2018-09-09T11:27:26.804Z,1.80
2018-09-09T11:29:54.107Z,2.00
2018-09-09T11:32:21.177Z,2.07
2018-09-09T11:34:48.319Z,2.10
2018-09-09T11:37:15.409Z,1.93
2018-09-09T11:39:42.573Z,1.77
2018-09-09T11:42:09.713Z,1.97
2018-09-09T11:44:39.549Z,1.50
2018-09-09T11:47:06.633Z,1.60
2018-09-09T11:49:34.018Z,2.03
2018-09-09T11:52:01.510Z,1.97
2018-09-09T11:54:41.993Z,1.50
2018-09-09T11:57:12.835Z,2.10
2018-09-09T11:59:40.151Z,2.00
2018-09-09T12:02:07.348Z,1.50
2018-09-09T12:04:34.809Z,1.43
2018-09-09T12:07:01.966Z,1.47
2018-09-09T12:09:29.066Z,1.50
2018-09-09T12:11:56.172Z,1.63
2018-09-09T12:14:23.272Z,1.63
2018-09-09T12:16:50.381Z,1.50
2018-09-09T12:19:17.485Z,1.73
2018-09-09T12:21:44.595Z,1.60
2018-09-09T12:24:11.801Z,1.50
2018-09-09T12:26:38.935Z,1.40
2018-09-09T12:29:06.328Z,1.30
2018-09-09T12:31:33.425Z,1.60
2018-09-09T12:34:00.631Z,1.50
2018-09-09T12:36:27.758Z,1.60
2018-09-09T12:38:54.925Z,1.40
2018-09-09T12:41:22.139Z,1.50
2018-09-09T12:43:54.737Z,1.67
2018-09-09T12:46:27.173Z,1.70
2018-09-09T12:49:01.461Z,1.50
2018-09-09T12:51:28.643Z,1.40
2018-09-09T12:53:55.742Z,1.47
2018-09-09T12:56:22.842Z,1.47
2018-09-09T12:58:50.173Z,1.50
2018-09-09T13:01:17.528Z,1.30
2018-09-09T13:03:45.237Z,1.30
2018-09-09T13:06:12.675Z,1.33
2018-09-09T13:08:39.950Z,1.43
2018-09-09T13:11:07.037Z,1.40
2018-09-09T13:13:34.360Z,1.50
2018-09-09T13:16:01.745Z,1.73
2018-09-09T13:18:29.098Z,1.67
2018-09-09T13:20:56.523Z,1.57
2018-09-09T13:23:23.910Z,1.40
2018-09-09T13:25:51.390Z,1.63
2018-09-09T13:28:18.711Z,1.40
2018-09-09T13:30:46.090Z,1.40
2018-09-09T13:33:13.453Z,1.67
2018-09-09T13:35:42.875Z,1.80
2018-09-09T13:38:10.149Z,1.50
2018-09-09T13:40:37.458Z,1.30
2018-09-09T13:43:04.953Z,1.40
2018-09-09T13:45:32.226Z,1.57
2018-09-09T13:47:59.407Z,1.50
2018-09-09T13:50:26.725Z,1.37
2018-09-09T13:52:53.846Z,1.50
2018-09-09T13:55:21.093Z,1.57
2018-09-09T13:57:48.333Z,1.60
2018-09-09T14:00:15.644Z,1.47
2018-09-09T14:02:42.878Z,1.87
2018-09-09T14:05:10.198Z,1.50
2018-09-09T14:07:38.288Z,1.27
2018-09-09T14:10:05.830Z,1.40
2018-09-09T14:12:33.090Z,1.30
2018-09-09T14:15:00.276Z,1.30
2018-09-09T14:17:27.556Z,1.80
2018-09-09T14:19:54.752Z,1.60
2018-09-09T14:22:22.072Z,1.30
2018-09-09T14:24:49.104Z,1.47
2018-09-09T14:27:16.218Z,1.43
2018-09-09T14:29:43.526Z,1.50
2018-09-09T14:32:10.973Z,1.30
2018-09-09T14:34:38.513Z,1.67
2018-09-09T14:37:05.642Z,1.40
2018-09-09T14:39:32.745Z,1.47
2018-09-09T14:42:01.155Z,1.40
2018-09-09T14:44:29.539Z,1.20
2018-09-09T14:46:56.831Z,1.43
2018-09-09T14:49:23.943Z,1.40
2018-09-09T14:51:51.038Z,1.57
2018-09-09T14:54:18.195Z,1.60
2018-09-09T14:56:45.296Z,1.33
2018-09-09T14:59:12.447Z,1.43
2018-09-09T15:01:39.621Z,1.37
2018-09-09T15:04:06.731Z,1.23
2018-09-09T15:06:33.847Z,1.47
2018-09-09T15:09:00.961Z,1.43
2018-09-09T15:11:28.233Z,1.50
2018-09-09T15:13:55.494Z,1.57
2018-09-09T15:16:22.621Z,1.70
2018-09-09T15:18:49.753Z,1.43
2018-09-09T15:21:16.879Z,1.60
2018-09-09T15:23:44.115Z,1.37
2018-09-09T15:26:11.212Z,1.50
2018-09-09T15:28:38.382Z,1.50
2018-09-09T15:31:05.546Z,1.40
2018-09-09T15:33:32.656Z,1.53
2018-09-09T15:35:59.909Z,1.50
2018-09-09T15:38:27.029Z,1.40
2018-09-09T15:40:54.137Z,1.50
2018-09-09T15:43:21.561Z,1.50
2018-09-09T15:45:48.715Z,1.27
2018-09-09T15:48:15.893Z,1.43
2018-09-09T15:50:43.025Z,1.50
2018-09-09T15:53:10.231Z,1.40
2018-09-09T15:55:37.336Z,1.53
2018-09-09T15:58:04.560Z,1.50
2018-09-09T16:00:31.918Z,1.63
2018-09-09T16:02:58.933Z,1.30
2018-09-09T16:05:26.326Z,1.70
2018-09-09T16:07:53.483Z,1.50
2018-09-09T16:10:21.063Z,1.57
2018-09-09T16:12:48.533Z,1.40
2018-09-09T16:15:15.680Z,1.40
2018-09-09T16:17:42.842Z,1.57
2018-09-09T16:20:10.235Z,1.60
2018-09-09T16:22:38.003Z,1.40
2018-09-09T16:25:05.440Z,2.00
2018-09-09T16:27:32.991Z,1.83
2018-09-09T16:30:00.380Z,1.90
2018-09-09T16:32:27.492Z,1.83
2018-09-09T16:34:54.594Z,1.47
2018-09-09T16:37:22.165Z,1.80
2018-09-09T16:39:49.701Z,1.30
2018-09-09T16:42:16.838Z,1.90
2018-09-09T16:44:44.014Z,1.87
2018-09-09T16:47:11.154Z,2.40
2018-09-09T16:49:38.380Z,1.87
2018-09-09T16:52:05.514Z,2.40
2018-09-09T16:54:32.633Z,2.10
2018-09-09T16:56:59.746Z,2.10
2018-09-09T16:59:26.848Z,2.43
2018-09-09T17:01:54.086Z,1.97
2018-09-09T17:04:21.246Z,1.80
2018-09-09T17:06:48.469Z,2.20
2018-09-09T17:09:15.637Z,1.87
2018-09-09T17:11:43.198Z,1.90
2018-09-09T17:14:10.428Z,1.80
2018-09-09T17:16:38.181Z,1.90
2018-09-09T17:19:05.362Z,1.77
2018-09-09T17:21:32.553Z,1.60
2018-09-09T17:23:59.865Z,1.70
2018-09-09T17:26:26.966Z,1.80
2018-09-09T17:28:54.132Z,1.83
2018-09-09T17:31:21.331Z,1.60
2018-09-09T17:33:48.487Z,1.97
2018-09-09T17:36:15.704Z,2.03
2018-09-09T17:41:19.817Z,1.90
2018-09-09T17:43:47.008Z,2.13
2018-09-09T17:46:14.120Z,2.10
2018-09-09T17:48:41.455Z,1.83
2018-09-09T17:51:08.802Z,2.17
2018-09-09T17:53:36.703Z,1.97
2018-09-09T17:56:03.980Z,2.10
2018-09-09T17:58:31.295Z,1.63
2018-09-09T18:00:58.391Z,1.90
2018-09-09T18:03:25.476Z,1.70
2018-09-09T18:05:52.614Z,1.80
2018-09-09T18:08:19.726Z,2.10
2018-09-09T18:10:46.842Z,1.70
2018-09-09T18:13:13.942Z,2.07
2018-09-09T18:15:41.162Z,1.93
2018-09-09T18:18:08.293Z,1.70
2018-09-09T18:20:35.484Z,1.90
2018-09-09T18:23:02.593Z,2.10
2018-09-09T18:25:29.702Z,1.90
2018-09-09T18:27:56.823Z,1.60
2018-09-09T18:30:23.918Z,2.03
2018-09-09T18:32:51.033Z,2.10
2018-09-09T18:35:18.134Z,1.70
2018-09-09T18:37:45.257Z,1.80
2018-09-09T18:40:12.742Z,1.90
2018-09-09T18:42:39.842Z,1.90
2018-09-09T18:45:07.509Z,1.90
2018-09-09T18:47:34.534Z,1.80
2018-09-09T18:50:01.640Z,1.80
2018-09-09T18:52:28.742Z,1.83
2018-09-09T18:54:55.861Z,1.60
2018-09-09T18:57:22.961Z,1.70
2018-09-09T18:59:50.075Z,1.80
2018-09-09T19:02:17.177Z,1.80
2018-09-09T19:04:44.277Z,2.07
2018-09-09T19:07:11.384Z,1.90
2018-09-09T19:09:38.554Z,1.80
2018-09-09T19:12:05.745Z,2.00
2018-09-09T19:14:32.877Z,1.80
2018-09-09T19:17:00.026Z,1.77
2018-09-09T19:19:27.122Z,1.97
2018-09-09T19:21:54.281Z,1.93
2018-09-09T19:24:21.646Z,1.70
2018-09-09T19:26:48.919Z,1.70
2018-09-09T19:29:16.031Z,2.17
2018-09-09T19:31:43.122Z,1.77
2018-09-09T19:34:10.261Z,2.00
2018-09-09T19:36:37.363Z,1.80
2018-09-09T19:39:06.210Z,1.83
2018-09-09T19:41:33.302Z,2.00
2018-09-09T19:44:00.478Z,1.80
2018-09-09T19:46:27.558Z,1.60
2018-09-09T19:48:55.171Z,2.00
2018-09-09T19:51:22.381Z,1.60
2018-09-09T19:53:49.494Z,2.07
2018-09-09T19:56:16.613Z,1.63
2018-09-09T19:58:43.717Z,2.27
2018-09-09T20:01:10.848Z,2.00
2018-09-09T20:03:37.941Z,2.20
2018-09-09T20:06:05.033Z,2.00
2018-09-09T20:08:32.132Z,2.17
2018-09-09T20:11:02.417Z,2.00
2018-09-09T20:13:29.594Z,2.40
2018-09-09T20:16:03.472Z,1.90
2018-09-09T20:18:30.790Z,1.90
2018-09-09T20:20:57.968Z,2.00
2018-09-09T20:23:25.153Z,2.07
2018-09-09T20:25:52.300Z,1.70
2018-09-09T20:28:19.413Z,2.07
2018-09-09T20:30:46.550Z,2.00
2018-09-09T20:33:13.763Z,1.83
2018-09-09T20:35:40.866Z,1.60
2018-09-09T20:38:08.025Z,1.90
2018-09-09T20:40:35.122Z,2.03
2018-09-09T20:43:02.222Z,1.90
2018-09-09T20:45:29.327Z,1.77
2018-09-09T20:47:56.414Z,1.93
2018-09-09T20:50:23.787Z,2.40
2018-09-09T20:52:51.043Z,2.57
2018-09-09T20:55:18.510Z,2.50
2018-09-09T20:57:45.596Z,2.27
2018-09-09T21:00:12.723Z,2.30
2018-09-09T21:02:39.805Z,2.10
2018-09-09T21:05:06.949Z,2.13
2018-09-09T21:07:34.057Z,2.50
2018-09-09T21:10:01.190Z,2.40
2018-09-09T21:12:28.336Z,2.00
2018-09-09T21:14:55.433Z,1.90
2018-09-09T21:17:22.555Z,2.40
2018-09-09T21:19:49.664Z,1.90
2018-09-09T21:22:16.802Z,2.00
2018-09-09T21:24:43.962Z,2.00
2018-09-09T21:27:11.368Z,2.17
2018-09-09T21:29:38.737Z,2.20
2018-09-09T21:32:05.857Z,2.30
2018-09-09T21:34:33.235Z,1.90
2018-09-09T21:37:00.458Z,2.50
2018-09-09T21:39:27.754Z,2.37
2018-09-09T21:41:55.586Z,2.30
2018-09-09T21:44:23.216Z,2.00
2018-09-09T21:46:50.329Z,2.17
2018-09-09T21:49:18.310Z,2.20
2018-09-09T21:51:46.245Z,2.10
2018-09-09T21:54:13.409Z,2.10
2018-09-09T21:56:41.174Z,2.03
2018-09-09T21:59:09.089Z,2.10
2018-09-09T22:02:13.847Z,2.10
2018-09-09T22:04:40.942Z,2.07
2018-09-09T22:07:11.828Z,2.30
2018-09-09T22:09:40.682Z,2.73
2018-09-09T22:12:14.410Z,1.90
2018-09-09T22:14:42.250Z,2.40
2018-09-09T22:17:09.981Z,2.20
2018-09-09T22:19:37.083Z,2.20
2018-09-09T22:22:04.190Z,2.40
2018-09-09T22:24:31.338Z,2.47
2018-09-09T22:26:58.415Z,2.20
2018-09-09T22:29:25.508Z,2.10
2018-09-09T22:31:52.607Z,2.43
2018-09-09T22:34:19.711Z,2.20
2018-09-09T22:36:46.805Z,2.60
2018-09-09T22:39:13.909Z,2.10
2018-09-09T22:41:41.015Z,2.30
2018-09-09T22:44:10.033Z,2.50
2018-09-09T22:46:37.141Z,2.10
2018-09-09T22:49:04.236Z,2.37
2018-09-09T22:51:31.342Z,2.40
2018-09-09T22:53:58.517Z,2.47
2018-09-09T22:56:25.618Z,2.20
2018-09-09T22:58:52.714Z,2.60
2018-09-09T23:01:19.833Z,2.20
2018-09-09T23:03:46.989Z,2.10
2018-09-09T23:06:14.123Z,2.73
2018-09-09T23:08:41.379Z,2.37
2018-09-09T23:11:08.482Z,2.00
2018-09-09T23:13:35.573Z,2.20
2018-09-09T23:16:02.694Z,2.20
2018-09-09T23:18:29.785Z,2.20
2018-09-09T23:20:56.887Z,2.00
2018-09-09T23:23:23.980Z,2.00
2018-09-09T23:25:51.085Z,2.30
2018-09-09T23:28:18.203Z,2.07
2018-09-09T23:30:45.367Z,2.37
2018-09-09T23:33:12.539Z,2.10
2018-09-09T23:35:39.630Z,2.17
2018-09-09T23:38:06.729Z,1.97
2018-09-09T23:40:33.839Z,2.47
2018-09-09T23:43:00.935Z,2.20
2018-09-09T23:45:28.043Z,2.07
2018-09-09T23:47:55.138Z,2.30
2018-09-09T23:50:22.358Z,2.27
2018-09-09T23:52:49.541Z,2.20
2018-09-09T23:55:16.663Z,2.33
2018-09-09T23:57:43.780Z,2.10
